sensor_id;sensor_type;location;lat;lon;timestamp;P1;durP1;ratioP1;P2;durP2;ratioP2
1777;SDS011;886;50.082;8.222;2022-12-10T00:01:52;11.63;;;8.70;;
1777;SDS011;886;50.082;8.222;2022-12-10T00:04:25;11.27;;;8.05;;
1777;SDS011;886;50.082;8.222;2022-12-10T00:06:52;10.73;;;7.85;;
1777;SDS011;886;50.082;8.222;2022-12-10T00:09:22;12.45;;;9.20;;
1777;SDS011;886;50.082;8.222;2022-12-10T00:11:50;14.88;;;8.95;;
1777;SDS011;886;50.082;8.222;2022-12-10T00:14:17;11.93;;;8.65;;
1777;SDS011;886;50.082;8.222;2022-12-10T00:16:45;10.65;;;8.13;;
1777;SDS011;886;50.082;8.222;2022-12-10T00:19:18;11.70;;;8.95;;
1777;SDS011;886;50.082;8.222;2022-12-10T00:21:45;12.88;;;8.38;;
1777;SDS011;886;50.082;8.222;2022-12-10T00:24:21;13.30;;;8.98;;
1777;SDS011;886;50.082;8.222;2022-12-10T00:26:52;15.27;;;8.65;;
1777;SDS011;886;50.082;8.222;2022-12-10T00:29:19;12.05;;;7.80;;
1777;SDS011;886;50.082;8.222;2022-12-10T00:31:46;13.30;;;9.18;;
1777;SDS011;886;50.082;8.222;2022-12-10T00:34:16;10.18;;;8.40;;
1777;SDS011;886;50.082;8.222;2022-12-10T00:36:44;16.23;;;9.15;;
1777;SDS011;886;50.082;8.222;2022-12-10T00:39:14;14.95;;;8.90;;
1777;SDS011;886;50.082;8.222;2022-12-10T00:41:44;15.13;;;9.18;;
1777;SDS011;886;50.082;8.222;2022-12-10T00:44:15;10.80;;;8.35;;
1777;SDS011;886;50.082;8.222;2022-12-10T00:46:43;12.20;;;8.55;;
1777;SDS011;886;50.082;8.222;2022-12-10T00:49:10;17.95;;;9.15;;
1777;SDS011;886;50.082;8.222;2022-12-10T00:51:38;13.32;;;9.43;;
1777;SDS011;886;50.082;8.222;2022-12-10T00:54:19;10.40;;;8.27;;
1777;SDS011;886;50.082;8.222;2022-12-10T00:56:49;12.15;;;9.13;;
1777;SDS011;886;50.082;8.222;2022-12-10T00:59:20;14.55;;;9.40;;
1777;SDS011;886;50.082;8.222;2022-12-10T01:01:48;13.57;;;9.70;;
1777;SDS011;886;50.082;8.222;2022-12-10T01:04:15;15.07;;;8.90;;
1777;SDS011;886;50.082;8.222;2022-12-10T01:06:53;17.05;;;9.35;;
1777;SDS011;886;50.082;8.222;2022-12-10T01:09:21;13.57;;;9.10;;
1777;SDS011;886;50.082;8.222;2022-12-10T01:11:53;12.90;;;8.75;;
1777;SDS011;886;50.082;8.222;2022-12-10T01:14:24;15.63;;;10.20;;
1777;SDS011;886;50.082;8.222;2022-12-10T01:16:55;11.98;;;8.18;;
1777;SDS011;886;50.082;8.222;2022-12-10T01:19:25;13.30;;;9.00;;
1777;SDS011;886;50.082;8.222;2022-12-10T01:21:53;11.90;;;8.43;;
1777;SDS011;886;50.082;8.222;2022-12-10T01:24:24;10.85;;;8.02;;
1777;SDS011;886;50.082;8.222;2022-12-10T01:26:53;12.77;;;8.45;;
1777;SDS011;886;50.082;8.222;2022-12-10T01:29:21;14.50;;;8.95;;
1777;SDS011;886;50.082;8.222;2022-12-10T01:31:56;13.60;;;8.75;;
1777;SDS011;886;50.082;8.222;2022-12-10T01:34:24;10.80;;;8.40;;
1777;SDS011;886;50.082;8.222;2022-12-10T01:36:55;13.02;;;8.57;;
1777;SDS011;886;50.082;8.222;2022-12-10T01:39:25;11.18;;;7.85;;
1777;SDS011;886;50.082;8.222;2022-12-10T01:41:53;18.00;;;9.50;;
1777;SDS011;886;50.082;8.222;2022-12-10T01:47:35;13.75;;;9.25;;
1777;SDS011;886;50.082;8.222;2022-12-10T01:50:03;11.48;;;7.78;;
1777;SDS011;886;50.082;8.222;2022-12-10T01:52:36;13.05;;;8.48;;
1777;SDS011;886;50.082;8.222;2022-12-10T01:55:06;11.23;;;8.45;;
1777;SDS011;886;50.082;8.222;2022-12-10T01:58:04;14.25;;;9.20;;
1777;SDS011;886;50.082;8.222;2022-12-10T02:00:34;12.02;;;8.15;;
1777;SDS011;886;50.082;8.222;2022-12-10T02:03:18;13.35;;;8.98;;
1777;SDS011;886;50.082;8.222;2022-12-10T02:05:58;14.75;;;9.05;;
1777;SDS011;886;50.082;8.222;2022-12-10T02:08:35;13.65;;;8.80;;
1777;SDS011;886;50.082;8.222;2022-12-10T02:11:17;11.77;;;8.30;;
1777;SDS011;886;50.082;8.222;2022-12-10T02:13:52;13.40;;;9.20;;
1777;SDS011;886;50.082;8.222;2022-12-10T02:16:26;12.38;;;8.60;;
1777;SDS011;886;50.082;8.222;2022-12-10T02:19:01;14.00;;;8.85;;
1777;SDS011;886;50.082;8.222;2022-12-10T02:21:40;11.93;;;9.38;;
1777;SDS011;886;50.082;8.222;2022-12-10T02:24:17;14.55;;;9.40;;
1777;SDS011;886;50.082;8.222;2022-12-10T02:26:51;13.27;;;8.80;;
1777;SDS011;886;50.082;8.222;2022-12-10T02:29:32;12.80;;;8.45;;
1777;SDS011;886;50.082;8.222;2022-12-10T02:32:05;13.57;;;8.70;;
1777;SDS011;886;50.082;8.222;2022-12-10T02:34:42;14.13;;;7.80;;
1777;SDS011;886;50.082;8.222;2022-12-10T02:37:17;10.32;;;7.40;;
1777;SDS011;886;50.082;8.222;2022-12-10T02:39:52;10.00;;;7.30;;
1777;SDS011;886;50.082;8.222;2022-12-10T02:42:25;12.80;;;8.65;;
1777;SDS011;886;50.082;8.222;2022-12-10T02:44:57;9.30;;;7.07;;
1777;SDS011;886;50.082;8.222;2022-12-10T02:47:24;12.60;;;7.78;;
1777;SDS011;886;50.082;8.222;2022-12-10T02:49:52;10.93;;;7.97;;
1777;SDS011;886;50.082;8.222;2022-12-10T02:52:25;11.50;;;7.55;;
1777;SDS011;886;50.082;8.222;2022-12-10T02:54:55;11.70;;;7.78;;
1777;SDS011;886;50.082;8.222;2022-12-10T02:57:27;12.30;;;7.88;;
1777;SDS011;886;50.082;8.222;2022-12-10T03:00:07;10.07;;;7.57;;
1777;SDS011;886;50.082;8.222;2022-12-10T03:03:10;11.52;;;8.02;;
1777;SDS011;886;50.082;8.222;2022-12-10T03:05:47;11.65;;;7.10;;
1777;SDS011;886;50.082;8.222;2022-12-10T03:08:27;11.98;;;7.43;;
1777;SDS011;886;50.082;8.222;2022-12-10T03:11:02;11.70;;;7.53;;
1777;SDS011;886;50.082;8.222;2022-12-10T03:13:36;9.75;;;7.13;;
1777;SDS011;886;50.082;8.222;2022-12-10T03:16:08;11.90;;;7.97;;
1777;SDS011;886;50.082;8.222;2022-12-10T03:18:36;10.20;;;7.60;;
1777;SDS011;886;50.082;8.222;2022-12-10T03:21:05;8.32;;;6.88;;
1777;SDS011;886;50.082;8.222;2022-12-10T03:23:45;11.90;;;7.60;;
1777;SDS011;886;50.082;8.222;2022-12-10T03:26:23;9.80;;;6.80;;
1777;SDS011;886;50.082;8.222;2022-12-10T03:28:52;10.27;;;6.60;;
1777;SDS011;886;50.082;8.222;2022-12-10T03:31:28;13.18;;;8.48;;
1777;SDS011;886;50.082;8.222;2022-12-10T03:33:57;8.38;;;6.53;;
1777;SDS011;886;50.082;8.222;2022-12-10T03:36:24;11.20;;;7.72;;
1777;SDS011;886;50.082;8.222;2022-12-10T03:38:53;10.15;;;7.80;;
1777;SDS011;886;50.082;8.222;2022-12-10T03:41:24;13.20;;;7.70;;
1777;SDS011;886;50.082;8.222;2022-12-10T03:43:55;9.93;;;7.30;;
1777;SDS011;886;50.082;8.222;2022-12-10T03:46:28;8.35;;;6.60;;
1777;SDS011;886;50.082;8.222;2022-12-10T03:48:57;11.45;;;7.10;;
1777;SDS011;886;50.082;8.222;2022-12-10T03:51:31;10.02;;;7.63;;
1777;SDS011;886;50.082;8.222;2022-12-10T03:53:58;12.55;;;7.25;;
1777;SDS011;886;50.082;8.222;2022-12-10T03:56:28;8.77;;;7.00;;
1777;SDS011;886;50.082;8.222;2022-12-10T03:58:58;10.07;;;6.07;;
1777;SDS011;886;50.082;8.222;2022-12-10T04:01:25;9.75;;;6.18;;
1777;SDS011;886;50.082;8.222;2022-12-10T04:03:54;8.80;;;6.57;;
1777;SDS011;886;50.082;8.222;2022-12-10T04:06:24;8.65;;;6.07;;
1777;SDS011;886;50.082;8.222;2022-12-10T04:08:52;8.48;;;6.68;;
1777;SDS011;886;50.082;8.222;2022-12-10T04:11:24;8.68;;;6.30;;
1777;SDS011;886;50.082;8.222;2022-12-10T04:13:58;8.73;;;6.53;;
1777;SDS011;886;50.082;8.222;2022-12-10T04:16:51;8.15;;;6.40;;
1777;SDS011;886;50.082;8.222;2022-12-10T04:19:18;8.18;;;5.93;;
1777;SDS011;886;50.082;8.222;2022-12-10T04:21:51;10.05;;;7.05;;
1777;SDS011;886;50.082;8.222;2022-12-10T04:24:40;7.05;;;6.00;;
1777;SDS011;886;50.082;8.222;2022-12-10T04:27:33;11.88;;;7.65;;
1777;SDS011;886;50.082;8.222;2022-12-10T04:30:03;9.77;;;7.57;;
1777;SDS011;886;50.082;8.222;2022-12-10T04:32:38;7.68;;;6.88;;
1777;SDS011;886;50.082;8.222;2022-12-10T04:35:06;9.13;;;6.40;;
1777;SDS011;886;50.082;8.222;2022-12-10T04:37:34;8.23;;;6.60;;
1777;SDS011;886;50.082;8.222;2022-12-10T04:40:04;8.32;;;6.57;;
1777;SDS011;886;50.082;8.222;2022-12-10T04:42:35;10.23;;;7.55;;
1777;SDS011;886;50.082;8.222;2022-12-10T04:45:03;10.90;;;8.07;;
1777;SDS011;886;50.082;8.222;2022-12-10T04:47:31;8.00;;;6.93;;
1777;SDS011;886;50.082;8.222;2022-12-10T04:50:06;10.75;;;7.65;;
1777;SDS011;886;50.082;8.222;2022-12-10T04:52:37;10.65;;;7.28;;
1777;SDS011;886;50.082;8.222;2022-12-10T04:55:04;9.60;;;7.70;;
1777;SDS011;886;50.082;8.222;2022-12-10T04:57:35;11.68;;;7.97;;
1777;SDS011;886;50.082;8.222;2022-12-10T05:00:18;12.18;;;7.53;;
1777;SDS011;886;50.082;8.222;2022-12-10T05:02:48;16.25;;;8.63;;
1777;SDS011;886;50.082;8.222;2022-12-10T05:05:15;9.40;;;7.00;;
1777;SDS011;886;50.082;8.222;2022-12-10T05:07:51;10.93;;;7.18;;
1777;SDS011;886;50.082;8.222;2022-12-10T05:10:23;9.38;;;7.00;;
1777;SDS011;886;50.082;8.222;2022-12-10T05:12:50;9.00;;;6.80;;
1777;SDS011;886;50.082;8.222;2022-12-10T05:15:17;10.90;;;7.75;;
1777;SDS011;886;50.082;8.222;2022-12-10T05:17:44;10.93;;;7.68;;
1777;SDS011;886;50.082;8.222;2022-12-10T05:20:12;10.07;;;7.25;;
1777;SDS011;886;50.082;8.222;2022-12-10T05:22:39;10.65;;;8.77;;
1777;SDS011;886;50.082;8.222;2022-12-10T05:25:25;9.90;;;7.70;;
1777;SDS011;886;50.082;8.222;2022-12-10T05:27:52;16.52;;;9.00;;
1777;SDS011;886;50.082;8.222;2022-12-10T05:30:19;9.73;;;8.02;;
1777;SDS011;886;50.082;8.222;2022-12-10T05:32:49;10.65;;;7.85;;
1777;SDS011;886;50.082;8.222;2022-12-10T05:35:20;11.40;;;8.20;;
1777;SDS011;886;50.082;8.222;2022-12-10T05:37:48;9.50;;;7.53;;
1777;SDS011;886;50.082;8.222;2022-12-10T05:40:21;10.50;;;7.60;;
1777;SDS011;886;50.082;8.222;2022-12-10T05:42:51;12.68;;;8.00;;
1777;SDS011;886;50.082;8.222;2022-12-10T05:45:18;13.95;;;9.70;;
1777;SDS011;886;50.082;8.222;2022-12-10T05:47:48;11.63;;;7.72;;
1777;SDS011;886;50.082;8.222;2022-12-10T05:50:18;13.00;;;8.43;;
1777;SDS011;886;50.082;8.222;2022-12-10T05:52:51;9.50;;;7.40;;
1777;SDS011;886;50.082;8.222;2022-12-10T05:55:18;8.57;;;6.80;;
1777;SDS011;886;50.082;8.222;2022-12-10T05:57:47;11.68;;;7.30;;
1777;SDS011;886;50.082;8.222;2022-12-10T06:00:29;11.05;;;8.30;;
1777;SDS011;886;50.082;8.222;2022-12-10T06:02:59;15.95;;;8.40;;
1777;SDS011;886;50.082;8.222;2022-12-10T06:05:26;12.65;;;8.50;;
1777;SDS011;886;50.082;8.222;2022-12-10T06:07:56;11.05;;;7.70;;
1777;SDS011;886;50.082;8.222;2022-12-10T06:10:23;11.13;;;8.18;;
1777;SDS011;886;50.082;8.222;2022-12-10T06:12:50;9.10;;;7.38;;
1777;SDS011;886;50.082;8.222;2022-12-10T06:15:18;11.68;;;6.80;;
1777;SDS011;886;50.082;8.222;2022-12-10T06:17:53;8.38;;;6.78;;
1777;SDS011;886;50.082;8.222;2022-12-10T06:20:20;11.23;;;8.68;;
1777;SDS011;886;50.082;8.222;2022-12-10T06:22:48;12.15;;;7.90;;
1777;SDS011;886;50.082;8.222;2022-12-10T06:25:16;9.32;;;7.32;;
1777;SDS011;886;50.082;8.222;2022-12-10T06:27:43;8.45;;;7.32;;
1777;SDS011;886;50.082;8.222;2022-12-10T06:30:18;10.32;;;6.88;;
1777;SDS011;886;50.082;8.222;2022-12-10T06:32:45;10.73;;;7.90;;
1777;SDS011;886;50.082;8.222;2022-12-10T06:35:12;9.40;;;7.32;;
1777;SDS011;886;50.082;8.222;2022-12-10T06:37:39;9.77;;;7.40;;
1777;SDS011;886;50.082;8.222;2022-12-10T06:40:07;7.22;;;6.20;;
1777;SDS011;886;50.082;8.222;2022-12-10T06:42:36;11.25;;;7.68;;
1777;SDS011;886;50.082;8.222;2022-12-10T06:45:03;11.02;;;7.20;;
1777;SDS011;886;50.082;8.222;2022-12-10T06:47:31;9.43;;;7.00;;
1777;SDS011;886;50.082;8.222;2022-12-10T06:49:59;8.20;;;6.78;;
1777;SDS011;886;50.082;8.222;2022-12-10T06:52:27;7.25;;;6.20;;
1777;SDS011;886;50.082;8.222;2022-12-10T06:54:54;10.77;;;6.90;;
1777;SDS011;886;50.082;8.222;2022-12-10T06:57:22;11.13;;;7.15;;
1777;SDS011;886;50.082;8.222;2022-12-10T06:59:51;8.43;;;6.63;;
1777;SDS011;886;50.082;8.222;2022-12-10T07:02:18;7.43;;;6.70;;
1777;SDS011;886;50.082;8.222;2022-12-10T07:04:45;10.20;;;7.30;;
1777;SDS011;886;50.082;8.222;2022-12-10T07:07:12;16.08;;;8.55;;
1777;SDS011;886;50.082;8.222;2022-12-10T07:09:39;11.90;;;7.70;;
1777;SDS011;886;50.082;8.222;2022-12-10T07:12:06;12.18;;;8.00;;
1777;SDS011;886;50.082;8.222;2022-12-10T07:14:33;10.93;;;7.45;;
1777;SDS011;886;50.082;8.222;2022-12-10T07:17:02;8.32;;;7.20;;
1777;SDS011;886;50.082;8.222;2022-12-10T07:19:29;9.10;;;7.20;;
1777;SDS011;886;50.082;8.222;2022-12-10T07:21:56;13.82;;;6.95;;
1777;SDS011;886;50.082;8.222;2022-12-10T07:24:24;9.68;;;7.10;;
1777;SDS011;886;50.082;8.222;2022-12-10T07:26:51;8.23;;;6.90;;
1777;SDS011;886;50.082;8.222;2022-12-10T07:29:21;10.13;;;7.57;;
1777;SDS011;886;50.082;8.222;2022-12-10T07:31:48;10.02;;;7.07;;
1777;SDS011;886;50.082;8.222;2022-12-10T07:34:17;8.35;;;6.60;;
1777;SDS011;886;50.082;8.222;2022-12-10T07:36:44;10.57;;;7.10;;
1777;SDS011;886;50.082;8.222;2022-12-10T07:39:12;11.27;;;7.68;;
1777;SDS011;886;50.082;8.222;2022-12-10T07:41:43;10.15;;;7.65;;
1777;SDS011;886;50.082;8.222;2022-12-10T07:44:11;13.25;;;8.40;;
1777;SDS011;886;50.082;8.222;2022-12-10T07:46:39;11.18;;;7.85;;
1777;SDS011;886;50.082;8.222;2022-12-10T07:49:06;11.52;;;8.13;;
1777;SDS011;886;50.082;8.222;2022-12-10T07:51:43;9.63;;;7.35;;
1777;SDS011;886;50.082;8.222;2022-12-10T07:54:11;11.25;;;7.43;;
1777;SDS011;886;50.082;8.222;2022-12-10T07:56:38;12.35;;;8.13;;
1777;SDS011;886;50.082;8.222;2022-12-10T07:59:05;11.80;;;8.43;;
1777;SDS011;886;50.082;8.222;2022-12-10T08:01:38;13.68;;;9.18;;
1777;SDS011;886;50.082;8.222;2022-12-10T08:04:06;12.40;;;9.13;;
1777;SDS011;886;50.082;8.222;2022-12-10T08:06:33;9.52;;;8.02;;
1777;SDS011;886;50.082;8.222;2022-12-10T08:09:04;12.80;;;8.15;;
1777;SDS011;886;50.082;8.222;2022-12-10T08:11:31;12.80;;;7.85;;
1777;SDS011;886;50.082;8.222;2022-12-10T08:13:58;11.77;;;7.95;;
1777;SDS011;886;50.082;8.222;2022-12-10T08:16:26;11.75;;;7.22;;
1777;SDS011;886;50.082;8.222;2022-12-10T08:18:56;12.18;;;8.65;;
1777;SDS011;886;50.082;8.222;2022-12-10T08:21:25;11.93;;;8.75;;
1777;SDS011;886;50.082;8.222;2022-12-10T08:23:56;14.02;;;9.25;;
1777;SDS011;886;50.082;8.222;2022-12-10T08:26:25;14.45;;;8.82;;
1777;SDS011;886;50.082;8.222;2022-12-10T08:28:54;14.45;;;9.27;;
1777;SDS011;886;50.082;8.222;2022-12-10T08:31:22;12.85;;;7.85;;
1777;SDS011;886;50.082;8.222;2022-12-10T08:33:50;12.20;;;8.18;;
1777;SDS011;886;50.082;8.222;2022-12-10T08:36:18;10.30;;;7.95;;
1777;SDS011;886;50.082;8.222;2022-12-10T08:38:45;11.55;;;7.40;;
1777;SDS011;886;50.082;8.222;2022-12-10T08:41:15;12.32;;;7.97;;
1777;SDS011;886;50.082;8.222;2022-12-10T08:43:44;12.23;;;8.30;;
1777;SDS011;886;50.082;8.222;2022-12-10T08:46:11;13.57;;;8.80;;
1777;SDS011;886;50.082;8.222;2022-12-10T08:48:39;11.02;;;8.02;;
1777;SDS011;886;50.082;8.222;2022-12-10T08:51:14;11.20;;;8.10;;
1777;SDS011;886;50.082;8.222;2022-12-10T08:53:44;11.75;;;8.85;;
1777;SDS011;886;50.082;8.222;2022-12-10T08:56:25;10.85;;;8.00;;
1777;SDS011;886;50.082;8.222;2022-12-10T08:58:53;11.15;;;7.75;;
1777;SDS011;886;50.082;8.222;2022-12-10T09:01:23;15.63;;;10.18;;
1777;SDS011;886;50.082;8.222;2022-12-10T09:03:53;15.07;;;9.32;;
1777;SDS011;886;50.082;8.222;2022-12-10T09:06:21;12.80;;;7.90;;
1777;SDS011;886;50.082;8.222;2022-12-10T09:08:53;10.68;;;7.95;;
1777;SDS011;886;50.082;8.222;2022-12-10T09:11:21;14.50;;;8.75;;
1777;SDS011;886;50.082;8.222;2022-12-10T09:13:52;14.65;;;8.48;;
1777;SDS011;886;50.082;8.222;2022-12-10T09:16:27;10.52;;;7.50;;
1777;SDS011;886;50.082;8.222;2022-12-10T09:18:55;8.80;;;6.97;;
1777;SDS011;886;50.082;8.222;2022-12-10T09:21:22;8.80;;;7.13;;
1777;SDS011;886;50.082;8.222;2022-12-10T09:23:51;10.25;;;7.80;;
1777;SDS011;886;50.082;8.222;2022-12-10T09:26:21;8.02;;;7.22;;
1777;SDS011;886;50.082;8.222;2022-12-10T09:28:52;9.80;;;7.25;;
1777;SDS011;886;50.082;8.222;2022-12-10T09:31:26;9.45;;;6.85;;
1777;SDS011;886;50.082;8.222;2022-12-10T09:33:54;8.55;;;6.88;;
1777;SDS011;886;50.082;8.222;2022-12-10T09:36:21;8.40;;;6.75;;
1777;SDS011;886;50.082;8.222;2022-12-10T09:38:55;10.77;;;7.38;;
1777;SDS011;886;50.082;8.222;2022-12-10T09:41:32;11.73;;;7.07;;
1777;SDS011;886;50.082;8.222;2022-12-10T09:44:21;10.25;;;6.35;;
1777;SDS011;886;50.082;8.222;2022-12-10T09:47:02;10.30;;;7.18;;
1777;SDS011;886;50.082;8.222;2022-12-10T09:49:33;8.15;;;6.72;;
1777;SDS011;886;50.082;8.222;2022-12-10T09:52:18;8.40;;;6.28;;
1777;SDS011;886;50.082;8.222;2022-12-10T09:54:48;8.55;;;7.05;;
1777;SDS011;886;50.082;8.222;2022-12-10T09:57:22;10.90;;;7.80;;
1777;SDS011;886;50.082;8.222;2022-12-10T09:59:56;10.98;;;8.40;;
1777;SDS011;886;50.082;8.222;2022-12-10T10:02:30;7.25;;;6.13;;
1777;SDS011;886;50.082;8.222;2022-12-10T10:05:00;8.52;;;6.40;;
1777;SDS011;886;50.082;8.222;2022-12-10T10:07:42;9.68;;;7.05;;
1777;SDS011;886;50.082;8.222;2022-12-10T10:10:20;7.03;;;6.18;;
1777;SDS011;886;50.082;8.222;2022-12-10T10:12:57;8.27;;;6.07;;
1777;SDS011;886;50.082;8.222;2022-12-10T10:15:41;7.75;;;5.82;;
1777;SDS011;886;50.082;8.222;2022-12-10T10:18:20;7.90;;;5.65;;
1777;SDS011;886;50.082;8.222;2022-12-10T10:21:01;6.45;;;5.60;;
1777;SDS011;886;50.082;8.222;2022-12-10T10:24:00;9.48;;;6.75;;
1777;SDS011;886;50.082;8.222;2022-12-10T10:26:38;7.38;;;5.40;;
1777;SDS011;886;50.082;8.222;2022-12-10T10:29:13;10.40;;;7.40;;
1777;SDS011;886;50.082;8.222;2022-12-10T10:31:46;5.93;;;5.32;;
1777;SDS011;886;50.082;8.222;2022-12-10T10:34:45;11.90;;;6.03;;
1777;SDS011;886;50.082;8.222;2022-12-10T10:37:22;6.05;;;5.45;;
1777;SDS011;886;50.082;8.222;2022-12-10T10:39:56;6.78;;;5.78;;
1777;SDS011;886;50.082;8.222;2022-12-10T10:42:42;9.05;;;5.97;;
1777;SDS011;886;50.082;8.222;2022-12-10T10:48:13;6.20;;;5.60;;
1777;SDS011;886;50.082;8.222;2022-12-10T10:50:50;6.88;;;5.43;;
1777;SDS011;886;50.082;8.222;2022-12-10T10:53:23;9.02;;;5.45;;
1777;SDS011;886;50.082;8.222;2022-12-10T10:56:04;9.95;;;6.93;;
1777;SDS011;886;50.082;8.222;2022-12-10T10:58:44;7.07;;;6.38;;
1777;SDS011;886;50.082;8.222;2022-12-10T11:01:24;5.85;;;5.25;;
1777;SDS011;886;50.082;8.222;2022-12-10T11:04:09;9.50;;;6.80;;
1777;SDS011;886;50.082;8.222;2022-12-10T11:06:36;10.80;;;7.57;;
1777;SDS011;886;50.082;8.222;2022-12-10T11:09:04;5.75;;;4.97;;
1777;SDS011;886;50.082;8.222;2022-12-10T11:11:40;8.45;;;5.72;;
1777;SDS011;886;50.082;8.222;2022-12-10T11:14:14;8.30;;;6.32;;
1777;SDS011;886;50.082;8.222;2022-12-10T11:17:01;9.93;;;6.57;;
1777;SDS011;886;50.082;8.222;2022-12-10T11:19:41;8.73;;;5.82;;
1777;SDS011;886;50.082;8.222;2022-12-10T11:22:17;7.28;;;5.70;;
1777;SDS011;886;50.082;8.222;2022-12-10T11:24:50;9.80;;;5.78;;
1777;SDS011;886;50.082;8.222;2022-12-10T11:27:22;9.43;;;7.50;;
1777;SDS011;886;50.082;8.222;2022-12-10T11:30:12;7.72;;;5.55;;
1777;SDS011;886;50.082;8.222;2022-12-10T11:33:02;6.47;;;5.38;;
1777;SDS011;886;50.082;8.222;2022-12-10T11:36:04;5.53;;;4.65;;
1777;SDS011;886;50.082;8.222;2022-12-10T11:38:50;7.43;;;5.25;;
1777;SDS011;886;50.082;8.222;2022-12-10T11:41:30;5.97;;;4.88;;
1777;SDS011;886;50.082;8.222;2022-12-10T11:44:20;6.25;;;5.43;;
1777;SDS011;886;50.082;8.222;2022-12-10T11:47:02;9.60;;;6.05;;
1777;SDS011;886;50.082;8.222;2022-12-10T11:50:07;6.45;;;5.40;;
1777;SDS011;886;50.082;8.222;2022-12-10T11:52:45;9.40;;;5.93;;
1777;SDS011;886;50.082;8.222;2022-12-10T11:55:30;6.38;;;5.25;;
1777;SDS011;886;50.082;8.222;2022-12-10T12:01:25;6.07;;;5.35;;
1777;SDS011;886;50.082;8.222;2022-12-10T12:04:12;6.68;;;5.97;;
1777;SDS011;886;50.082;8.222;2022-12-10T12:07:01;7.30;;;6.03;;
1777;SDS011;886;50.082;8.222;2022-12-10T12:10:19;7.80;;;6.05;;
1777;SDS011;886;50.082;8.222;2022-12-10T12:13:28;5.32;;;4.75;;
1777;SDS011;886;50.082;8.222;2022-12-10T12:16:03;8.98;;;6.32;;
1777;SDS011;886;50.082;8.222;2022-12-10T12:18:41;6.75;;;5.00;;
1777;SDS011;886;50.082;8.222;2022-12-10T12:21:14;12.32;;;7.72;;
1777;SDS011;886;50.082;8.222;2022-12-10T12:23:49;10.82;;;6.85;;
1777;SDS011;886;50.082;8.222;2022-12-10T12:26:30;7.03;;;5.70;;
1777;SDS011;886;50.082;8.222;2022-12-10T12:29:04;6.53;;;5.40;;
1777;SDS011;886;50.082;8.222;2022-12-10T12:31:40;9.38;;;7.22;;
1777;SDS011;886;50.082;8.222;2022-12-10T12:34:13;9.13;;;6.47;;
1777;SDS011;886;50.082;8.222;2022-12-10T12:36:46;11.23;;;7.45;;
1777;SDS011;886;50.082;8.222;2022-12-10T12:39:17;9.60;;;6.93;;
1777;SDS011;886;50.082;8.222;2022-12-10T12:41:59;11.70;;;6.93;;
1777;SDS011;886;50.082;8.222;2022-12-10T12:44:45;7.57;;;6.05;;
1777;SDS011;886;50.082;8.222;2022-12-10T12:47:32;10.68;;;7.00;;
1777;SDS011;886;50.082;8.222;2022-12-10T12:50:10;7.88;;;6.32;;
1777;SDS011;886;50.082;8.222;2022-12-10T12:53:01;9.50;;;7.00;;
1777;SDS011;886;50.082;8.222;2022-12-10T12:55:40;11.10;;;6.50;;
1777;SDS011;886;50.082;8.222;2022-12-10T12:58:15;8.18;;;6.93;;
1777;SDS011;886;50.082;8.222;2022-12-10T13:01:06;9.45;;;6.75;;
1777;SDS011;886;50.082;8.222;2022-12-10T13:03:45;8.50;;;6.65;;
1777;SDS011;886;50.082;8.222;2022-12-10T13:06:18;7.53;;;6.47;;
1777;SDS011;886;50.082;8.222;2022-12-10T13:08:49;9.65;;;6.43;;
1777;SDS011;886;50.082;8.222;2022-12-10T13:11:29;10.38;;;6.55;;
1777;SDS011;886;50.082;8.222;2022-12-10T13:17:07;8.23;;;7.00;;
1777;SDS011;886;50.082;8.222;2022-12-10T13:19:53;9.32;;;6.15;;
1777;SDS011;886;50.082;8.222;2022-12-10T13:22:57;6.85;;;5.65;;
1777;SDS011;886;50.082;8.222;2022-12-10T13:25:37;10.02;;;6.68;;
1777;SDS011;886;50.082;8.222;2022-12-10T13:28:32;9.23;;;6.93;;
1777;SDS011;886;50.082;8.222;2022-12-10T13:31:19;8.05;;;6.65;;
1777;SDS011;886;50.082;8.222;2022-12-10T13:37:13;10.05;;;6.45;;
1777;SDS011;886;50.082;8.222;2022-12-10T13:40:12;8.13;;;6.50;;
1777;SDS011;886;50.082;8.222;2022-12-10T13:42:56;8.60;;;5.45;;
1777;SDS011;886;50.082;8.222;2022-12-10T13:45:47;9.10;;;6.65;;
1777;SDS011;886;50.082;8.222;2022-12-10T13:48:29;7.95;;;5.93;;
1777;SDS011;886;50.082;8.222;2022-12-10T13:51:12;7.93;;;6.55;;
1777;SDS011;886;50.082;8.222;2022-12-10T13:53:57;7.18;;;5.75;;
1777;SDS011;886;50.082;8.222;2022-12-10T13:56:51;7.95;;;5.50;;
1777;SDS011;886;50.082;8.222;2022-12-10T13:59:40;7.28;;;5.65;;
1777;SDS011;886;50.082;8.222;2022-12-10T14:02:20;5.50;;;4.97;;
1777;SDS011;886;50.082;8.222;2022-12-10T14:05:14;8.63;;;6.20;;
1777;SDS011;886;50.082;8.222;2022-12-10T14:08:28;8.18;;;6.05;;
1777;SDS011;886;50.082;8.222;2022-12-10T14:11:06;9.43;;;6.32;;
1777;SDS011;886;50.082;8.222;2022-12-10T14:13:46;10.43;;;6.88;;
1777;SDS011;886;50.082;8.222;2022-12-10T14:16:20;10.88;;;6.60;;
1777;SDS011;886;50.082;8.222;2022-12-10T14:19:00;10.60;;;7.22;;
1777;SDS011;886;50.082;8.222;2022-12-10T14:21:33;9.50;;;6.50;;
1777;SDS011;886;50.082;8.222;2022-12-10T14:24:03;7.85;;;6.18;;
1777;SDS011;886;50.082;8.222;2022-12-10T14:26:56;12.73;;;7.70;;
1777;SDS011;886;50.082;8.222;2022-12-10T14:29:29;9.45;;;6.85;;
1777;SDS011;886;50.082;8.222;2022-12-10T14:31:56;8.88;;;6.65;;
1777;SDS011;886;50.082;8.222;2022-12-10T14:34:26;10.13;;;6.82;;
1777;SDS011;886;50.082;8.222;2022-12-10T14:36:57;11.32;;;8.80;;
1777;SDS011;886;50.082;8.222;2022-12-10T14:39:30;11.95;;;7.53;;
1777;SDS011;886;50.082;8.222;2022-12-10T14:42:03;12.95;;;8.20;;
1777;SDS011;886;50.082;8.222;2022-12-10T14:44:32;8.18;;;6.38;;
1777;SDS011;886;50.082;8.222;2022-12-10T14:47:05;9.82;;;7.45;;
1777;SDS011;886;50.082;8.222;2022-12-10T14:49:39;9.10;;;7.35;;
1777;SDS011;886;50.082;8.222;2022-12-10T14:52:13;16.30;;;9.82;;
1777;SDS011;886;50.082;8.222;2022-12-10T14:54:43;13.73;;;8.63;;
1777;SDS011;886;50.082;8.222;2022-12-10T14:57:13;10.73;;;8.48;;
1777;SDS011;886;50.082;8.222;2022-12-10T14:59:45;16.60;;;9.45;;
1777;SDS011;886;50.082;8.222;2022-12-10T15:02:18;13.57;;;8.70;;
1777;SDS011;886;50.082;8.222;2022-12-10T15:04:58;10.32;;;8.48;;
1777;SDS011;886;50.082;8.222;2022-12-10T15:07:26;13.27;;;9.23;;
1777;SDS011;886;50.082;8.222;2022-12-10T15:10:11;14.80;;;10.75;;
1777;SDS011;886;50.082;8.222;2022-12-10T15:12:45;20.38;;;9.85;;
1777;SDS011;886;50.082;8.222;2022-12-10T15:15:19;17.27;;;8.77;;
1777;SDS011;886;50.082;8.222;2022-12-10T15:17:55;13.93;;;9.20;;
1777;SDS011;886;50.082;8.222;2022-12-10T15:20:29;11.52;;;8.25;;
1777;SDS011;886;50.082;8.222;2022-12-10T15:23:08;13.38;;;9.05;;
1777;SDS011;886;50.082;8.222;2022-12-10T15:25:45;18.63;;;9.00;;
1777;SDS011;886;50.082;8.222;2022-12-10T15:28:24;17.58;;;10.15;;
1777;SDS011;886;50.082;8.222;2022-12-10T15:30:55;14.65;;;10.27;;
1777;SDS011;886;50.082;8.222;2022-12-10T15:33:29;12.63;;;9.20;;
1777;SDS011;886;50.082;8.222;2022-12-10T15:36:00;13.65;;;8.93;;
1777;SDS011;886;50.082;8.222;2022-12-10T15:38:27;17.70;;;10.30;;
1777;SDS011;886;50.082;8.222;2022-12-10T15:40:58;12.90;;;9.20;;
1777;SDS011;886;50.082;8.222;2022-12-10T15:43:54;16.25;;;9.90;;
1777;SDS011;886;50.082;8.222;2022-12-10T15:46:27;12.48;;;9.35;;
1777;SDS011;886;50.082;8.222;2022-12-10T15:48:54;14.43;;;8.77;;
1777;SDS011;886;50.082;8.222;2022-12-10T15:54:14;15.75;;;10.55;;
1777;SDS011;886;50.082;8.222;2022-12-10T15:56:59;10.25;;;8.00;;
1777;SDS011;886;50.082;8.222;2022-12-10T15:59:26;12.18;;;9.07;;
1777;SDS011;886;50.082;8.222;2022-12-10T16:01:54;15.52;;;10.20;;
1777;SDS011;886;50.082;8.222;2022-12-10T16:04:24;15.20;;;8.45;;
1777;SDS011;886;50.082;8.222;2022-12-10T16:06:53;13.60;;;8.25;;
1777;SDS011;886;50.082;8.222;2022-12-10T16:09:20;18.48;;;9.32;;
1777;SDS011;886;50.082;8.222;2022-12-10T16:11:47;11.63;;;8.73;;
1777;SDS011;886;50.082;8.222;2022-12-10T16:14:14;16.02;;;9.07;;
1777;SDS011;886;50.082;8.222;2022-12-10T16:16:41;16.15;;;10.95;;
1777;SDS011;886;50.082;8.222;2022-12-10T16:19:11;12.43;;;8.80;;
1777;SDS011;886;50.082;8.222;2022-12-10T16:21:39;14.68;;;9.82;;